createdAt,value
2016-04-03T00:00:11.790Z,21.4
2016-04-03T00:01:13.121Z,21.3
2016-04-03T00:02:14.436Z,21.3
2016-04-03T00:03:15.783Z,21.3
2016-04-03T00:04:17.239Z,21.2
2016-04-03T00:05:18.725Z,21.2
2016-04-03T00:06:19.869Z,21.2
2016-04-03T00:07:21.325Z,21.1
2016-04-03T00:08:22.890Z,21.1
2016-04-03T00:09:20.658Z,21.1
2016-04-03T00:10:18.442Z,21
2016-04-03T00:11:16.335Z,21
2016-04-03T00:12:13.994Z,20.9
2016-04-03T00:13:11.778Z,20.9
2016-04-03T00:14:09.547Z,20.9
2016-04-03T00:15:07.752Z,20.9
2016-04-03T00:16:08.771Z,20.8
2016-04-03T00:17:06.696Z,20.8
2016-04-03T00:18:05.089Z,20.8
2016-04-03T00:19:03.358Z,20.7
2016-04-03T00:20:01.641Z,20.7
2016-04-03T00:20:59.816Z,20.7
2016-04-03T00:21:58.100Z,20.7
2016-04-03T00:22:56.759Z,20.6
2016-04-03T00:23:55.199Z,20.6
2016-04-03T00:24:54.029Z,20.5
2016-04-03T00:25:55.049Z,20.5
2016-04-03T00:26:54.098Z,20.5
2016-04-03T00:27:53.507Z,20.5
2016-04-03T00:28:52.807Z,20.5
2016-04-03T00:29:52.262Z,20.4
2016-04-03T00:30:51.796Z,20.4
2016-04-03T00:31:51.595Z,20.4
2016-04-03T00:32:51.161Z,20.4
2016-04-03T00:33:50.960Z,20.3
2016-04-03T00:34:50.837Z,20.3
2016-04-03T00:35:52.059Z,20.3
2016-04-03T00:36:51.639Z,20.3
2016-04-03T00:37:51.455Z,20.2
2016-04-03T00:38:51.255Z,20.2
2016-04-03T00:39:51.305Z,20.2
2016-04-03T00:40:51.370Z,20.2
2016-04-03T00:41:51.436Z,20.1
2016-04-03T00:42:51.484Z,20.1
2016-04-03T00:43:51.659Z,20.1
2016-04-03T00:44:51.786Z,20.1
2016-04-03T00:45:52.805Z,20.1
2016-04-03T00:46:52.839Z,20.1
2016-04-03T00:47:53.044Z,20
2016-04-03T00:48:53.235Z,20
2016-04-03T00:49:53.268Z,20
2016-04-03T00:50:53.474Z,20
2016-04-03T00:51:53.899Z,19.9
2016-04-03T00:52:54.090Z,19.9
2016-04-03T00:53:54.405Z,19.9
2016-04-03T00:54:54.766Z,19.9
2016-04-03T00:55:55.785Z,19.9
2016-04-03T00:56:56.100Z,19.9
2016-04-03T00:58:56.856Z,19.8
2016-04-03T00:59:57.295Z,19.8
2016-04-03T01:00:57.877Z,19.8
2016-04-03T01:01:58.676Z,19.8
2016-04-03T01:02:59.117Z,19.8
2016-04-03T01:03:59.557Z,19.7
2016-04-03T01:05:00.310Z,19.7
2016-04-03T01:06:01.203Z,19.7
2016-04-03T01:07:01.768Z,19.7
2016-04-03T01:08:02.453Z,19.7
2016-04-03T01:09:02.905Z,19.7
2016-04-03T01:10:03.470Z,19.7
2016-04-03T01:11:04.160Z,19.7
2016-04-03T01:14:06.496Z,19.6
2016-04-03T01:15:07.483Z,19.6
2016-04-03T01:16:08.502Z,19.6
2016-04-03T01:17:09.336Z,19.6
2016-04-03T01:18:10.152Z,19.6
2016-04-03T01:19:11.092Z,19.6
2016-04-03T01:20:11.672Z,19.5
2016-04-03T01:23:14.368Z,19.5
2016-04-03T01:25:15.827Z,19.5
2016-04-03T01:26:16.846Z,19.5
2016-04-03T01:27:17.661Z,19.5
2016-04-03T01:28:18.851Z,19.4
2016-04-03T01:29:19.932Z,19.5
2016-04-03T01:30:20.996Z,19.4
2016-04-03T01:31:22.077Z,19.4
2016-04-03T01:32:23.143Z,19.4
2016-04-03T01:33:24.223Z,19.4
2016-04-03T01:34:25.320Z,19.4
2016-04-03T01:35:26.431Z,19.4
2016-04-03T01:36:27.340Z,19.3
2016-04-03T01:37:28.781Z,19.4
2016-04-03T01:38:29.986Z,19.3
2016-04-03T01:39:31.427Z,19.3
2016-04-03T01:40:32.758Z,19.3
2016-04-03T01:41:33.964Z,19.3
2016-04-03T01:42:35.044Z,19.3
2016-04-03T01:43:36.109Z,19.3
2016-04-03T01:44:37.300Z,19.3
2016-04-03T01:45:38.317Z,19.3
2016-04-03T01:46:39.336Z,19.3
2016-04-03T01:47:40.780Z,19.3
2016-04-03T01:48:42.001Z,19.3
2016-04-03T01:49:43.316Z,19.3
2016-04-03T01:50:44.647Z,19.3
2016-04-03T01:51:45.977Z,19.3
2016-04-03T01:52:47.449Z,19.3
2016-04-03T01:53:48.749Z,19.3
2016-04-03T01:54:50.080Z,19.2
2016-04-03T01:55:51.472Z,19.2
2016-04-03T01:56:52.366Z,19.2
2016-04-03T01:57:53.806Z,19.2
2016-04-03T01:58:55.043Z,19.2
2016-04-03T01:59:56.358Z,19.2
2016-04-03T02:00:57.815Z,19.2
2016-04-03T02:01:59.130Z,19.2
2016-04-03T02:03:00.351Z,19.2
2016-04-03T02:04:01.791Z,19.2
2016-04-03T02:05:03.121Z,19.1
2016-04-03T02:06:04.406Z,19.2
2016-04-03T02:07:05.393Z,19.1
2016-04-03T02:08:06.728Z,19.2
2016-04-03T02:09:08.044Z,19.1
2016-04-03T02:10:09.515Z,19.1
2016-04-03T02:11:10.706Z,19.1
2016-04-03T02:12:12.162Z,19.1
2016-04-03T02:13:13.367Z,19.1
2016-04-03T02:14:14.808Z,19.1
2016-04-03T02:15:16.028Z,19.1
2016-04-03T02:16:17.672Z,19.1
2016-04-03T02:17:18.691Z,19.1
2016-04-03T02:18:20.396Z,19.1
2016-04-03T02:19:21.883Z,19.1
2016-04-03T02:20:23.432Z,19.1
2016-04-03T02:21:25.013Z,19.1
2016-04-03T02:22:26.594Z,19.1
2016-04-03T02:23:28.175Z,19.1
2016-04-03T02:24:29.772Z,19
2016-04-03T02:25:27.555Z,19
2016-04-03T02:26:25.511Z,19
2016-04-03T02:27:26.404Z,19
2016-04-03T02:28:24.204Z,19
2016-04-03T02:29:21.957Z,19
2016-04-03T02:30:19.882Z,19
2016-04-03T02:31:17.524Z,19
2016-04-03T02:32:19.106Z,19
2016-04-03T02:33:20.686Z,19
2016-04-03T02:34:22.407Z,19
2016-04-03T02:35:20.051Z,19
2016-04-03T02:36:17.898Z,19
2016-04-03T02:37:18.932Z,19
2016-04-03T02:38:16.809Z,19
2016-04-03T02:39:14.468Z,19
2016-04-03T02:40:12.377Z,18.9
2016-04-03T02:41:10.036Z,19
2016-04-03T02:42:07.945Z,19
2016-04-03T02:43:05.728Z,19
2016-04-03T02:44:03.372Z,19
2016-04-03T09:23:40.866Z,20.9
2016-04-03T09:24:38.900Z,20.9
2016-04-03T09:25:40.480Z,20.9
2016-04-03T09:26:41.811Z,20.9
2016-04-03T09:27:42.892Z,20.9
2016-04-03T09:28:43.958Z,20.9
2016-04-03T09:29:44.789Z,20.9
2016-04-03T09:30:45.166Z,20.9
2016-04-03T09:31:46.169Z,20.9
2016-04-03T09:32:46.484Z,20.9
2016-04-03T09:33:46.550Z,20.9
2016-04-03T09:34:46.349Z,20.9
2016-04-03T09:35:45.789Z,20.9
2016-04-03T09:36:45.276Z,20.9
2016-04-03T09:37:44.248Z,20.9
2016-04-03T09:38:43.299Z,20.9
2016-04-03T09:39:42.208Z,20.9
2016-04-03T09:40:41.304Z,20.9
2016-04-03T09:41:42.214Z,20.8
2016-04-03T09:42:41.012Z,20.8
2016-04-03T09:43:39.812Z,20.8
2016-04-03T09:44:38.612Z,20.7
2016-04-03T09:45:37.271Z,20.7
2016-04-03T09:46:35.805Z,20.7
2016-04-03T09:47:33.980Z,20.7
2016-04-03T09:48:32.483Z,20.6
2016-04-03T09:49:31.297Z,20.6
2016-04-03T09:50:30.394Z,20.6
2016-04-03T09:51:31.412Z,20.6
2016-04-03T09:52:30.712Z,20.5
2016-04-03T09:53:30.387Z,20.5
2016-04-03T09:54:29.811Z,20.5
2016-04-03T09:55:28.860Z,20.5
2016-04-03T09:56:28.019Z,20.5
2016-04-03T09:57:26.694Z,20.5
2016-04-03T09:58:25.493Z,20.5
2016-04-03T09:59:24.558Z,20.5
2016-04-03T10:00:23.905Z,20.5
2016-04-03T10:01:24.924Z,20.5
2016-04-03T10:02:24.343Z,20.5
2016-04-03T10:03:23.551Z,20.5
2016-04-03T10:04:22.960Z,20.5
2016-04-03T10:05:22.284Z,20.4
2016-04-03T10:06:21.827Z,20.4
2016-04-03T10:07:21.643Z,20.5
2016-04-03T10:08:21.411Z,20.4
2016-04-03T10:09:21.226Z,20.4
2016-04-03T10:10:21.212Z,20.4
2016-04-03T10:11:22.279Z,20.4
2016-04-03T10:12:22.547Z,20.4
2016-04-03T10:13:22.346Z,20.3
2016-04-03T10:14:21.896Z,20.3
2016-04-03T10:15:21.195Z,20.3
2016-04-03T10:16:19.979Z,20.3
2016-04-03T10:17:18.778Z,20.3
2016-04-03T10:18:17.703Z,20.3
2016-04-03T10:19:17.144Z,20.3
2016-04-03T10:20:17.569Z,20.3
2016-04-03T10:21:18.508Z,20.3
2016-04-03T10:22:19.839Z,20.3
2016-04-03T10:23:17.748Z,20.3
2016-04-03T10:24:15.408Z,20.3
2016-04-03T10:25:13.191Z,20.3
2016-04-03T10:26:10.960Z,20.3
2016-04-03T10:27:09.133Z,20.3
2016-04-03T10:28:07.027Z,20.3
2016-04-03T10:29:05.058Z,20.3
2016-04-03T10:30:03.155Z,20.3
2016-04-03T10:31:04.174Z,20.3
2016-04-03T10:32:03.099Z,20.3
2016-04-03T10:33:01.757Z,20.3
2016-04-03T10:34:00.807Z,20.3
2016-04-03T10:35:00.137Z,20.4
2016-04-03T10:35:59.405Z,20.3
2016-04-03T10:36:58.954Z,20.4
2016-04-03T10:37:58.770Z,20.4
2016-04-03T10:38:58.820Z,20.3
2016-04-03T10:39:59.213Z,20.3
2016-04-03T10:41:00.201Z,20.3
2016-04-03T10:42:00.890Z,20.3
2016-04-03T10:43:01.612Z,20.3
2016-04-03T10:44:02.537Z,20.4
2016-04-03T10:45:03.243Z,20.4
2016-04-03T10:46:04.323Z,20.4
2016-04-03T10:47:05.389Z,20.3
2016-04-03T10:48:06.720Z,20.4
2016-04-03T10:49:08.053Z,20.3
2016-04-03T10:50:09.695Z,20.4
2016-04-03T10:51:10.714Z,20.3
2016-04-03T10:52:08.607Z,20.4
2016-04-03T10:53:06.263Z,20.3
2016-04-03T10:54:04.157Z,20.3
2016-04-03T10:55:01.941Z,20.3
2016-04-03T10:55:59.725Z,20.3
2016-04-03T10:56:57.759Z,20.3
2016-04-03T10:57:55.668Z,20.3
2016-04-03T10:58:53.717Z,20.4
2016-04-03T10:59:51.798Z,20.3
2016-04-03T11:00:52.816Z,20.3
2016-04-03T11:01:50.974Z,20.3
2016-04-03T11:02:48.868Z,20.3
2016-04-03T11:03:46.777Z,20.3
2016-04-03T11:04:44.437Z,20.3
2016-04-03T11:05:42.330Z,20.3
2016-04-03T11:06:39.989Z,20.3
2016-04-03T11:07:37.781Z,20.3
2016-04-03T11:08:35.548Z,20.3
2016-04-03T11:09:33.395Z,20.3
2016-04-03T11:10:34.523Z,20.3
2016-04-03T11:11:32.448Z,20.3
2016-04-03T11:12:30.482Z,20.3
2016-04-03T11:13:28.515Z,20.3
2016-04-03T11:14:26.534Z,20.3
2016-04-03T11:15:24.583Z,20.3
2016-04-03T11:16:22.586Z,20.3
2016-04-03T11:17:20.885Z,20.3
2016-04-03T11:18:19.169Z,20.3
2016-04-03T11:19:17.703Z,20.3
2016-04-03T11:20:18.534Z,20.3
2016-04-03T11:21:16.818Z,20.3
2016-04-03T11:22:15.102Z,20.3
2016-04-03T11:23:13.386Z,20.3
2016-04-03T11:24:11.701Z,20.3
2016-04-03T11:25:09.719Z,20.3
2016-04-03T11:26:07.738Z,20.3
2016-04-03T11:27:06.160Z,20.3
2016-04-03T11:28:04.069Z,20.3
2016-04-03T11:29:02.166Z,20.3
2016-04-03T11:30:03.183Z,20.3
2016-04-03T11:31:01.218Z,20.3
2016-04-03T11:31:59.252Z,20.3
2016-04-03T11:32:57.285Z,20.3
2016-04-03T11:33:55.429Z,20.3
2016-04-03T11:34:53.103Z,20.3
2016-04-03T11:35:54.668Z,20.3
2016-04-03T11:36:56.249Z,20.3
2016-04-03T11:37:57.846Z,20.3
2016-04-03T11:38:55.786Z,20.3
2016-04-03T11:39:56.679Z,20.3
2016-04-03T11:40:58.260Z,20.3
2016-04-03T11:41:59.840Z,20.3
2016-04-03T11:43:01.421Z,20.3
2016-04-03T11:44:03.002Z,20.3
2016-04-03T11:45:04.614Z,20.3
2016-04-03T11:46:05.914Z,20.3
2016-04-03T11:47:06.979Z,20.3
2016-04-03T11:48:08.062Z,20.3
2016-04-03T11:49:09.315Z,20.3
2016-04-03T11:50:10.209Z,20.3
2016-04-03T11:51:11.290Z,20.3
2016-04-03T11:52:12.480Z,20.3
2016-04-03T11:53:13.561Z,20.3
2016-04-03T11:54:14.267Z,20.4
2016-04-03T11:55:15.081Z,20.3
2016-04-03T11:56:16.022Z,20.3
2016-04-03T11:57:16.586Z,20.3
2016-04-03T11:58:17.043Z,20.3
2016-04-03T11:59:17.654Z,20.3
2016-04-03T12:00:18.673Z,20.3
2016-04-03T12:01:18.989Z,20.3
2016-04-03T12:03:19.634Z,20.4
2016-04-03T12:04:19.935Z,20.4
2016-04-03T12:05:20.250Z,20.4
2016-04-03T12:06:20.940Z,20.3
2016-04-03T12:07:21.129Z,20.3
2016-04-03T12:08:21.445Z,20.3
2016-04-03T12:09:21.573Z,20.3
2016-04-03T12:10:22.591Z,20.3
2016-04-03T12:11:22.641Z,20.3
2016-04-03T12:12:22.706Z,20.3
2016-04-03T12:13:22.880Z,20.4
2016-04-03T12:14:22.836Z,20.3
2016-04-03T12:15:22.885Z,20.3
2016-04-03T12:16:23.201Z,20.4
2016-04-03T12:17:23.516Z,20.3
2016-04-03T12:18:23.581Z,20.3
2016-04-03T12:19:23.692Z,20.3
2016-04-03T12:20:24.712Z,20.3
2016-04-03T12:21:24.776Z,20.3
2016-04-03T12:22:24.951Z,20.3
2016-04-03T12:23:25.156Z,20.4
2016-04-03T12:24:25.456Z,20.3
2016-04-03T12:25:25.772Z,20.3
2016-04-03T12:26:26.086Z,20.3
2016-04-03T12:27:26.653Z,20.3
2016-04-03T12:28:27.592Z,20.3
2016-04-03T12:29:28.236Z,20.3
2016-04-03T12:30:29.114Z,20.3
2016-04-03T12:31:29.944Z,20.3
2016-04-03T12:32:30.760Z,20.3
2016-04-03T12:33:31.591Z,20.3
2016-04-03T12:34:32.530Z,20.3
2016-04-03T12:35:33.237Z,20.3
2016-04-03T12:36:34.052Z,20.3
2016-04-03T12:37:34.866Z,20.3
2016-04-03T12:38:35.697Z,20.3
2016-04-03T12:39:36.934Z,20.3
2016-04-03T12:40:37.828Z,20.3
2016-04-03T12:41:38.910Z,20.3
2016-04-03T12:42:39.990Z,20.4
2016-04-03T12:43:41.055Z,20.3
2016-04-03T12:44:42.136Z,20.3
2016-04-03T12:45:43.201Z,20.3
2016-04-03T12:46:44.282Z,20.3
2016-04-03T12:47:45.363Z,20.3
2016-04-03T12:48:46.444Z,20.3
2016-04-03T12:49:47.821Z,20.3
2016-04-03T12:50:48.840Z,20.3
2016-04-03T12:51:50.421Z,20.3
2016-04-03T12:52:48.204Z,20.2
2016-04-03T12:53:46.098Z,20.3
2016-04-03T12:54:44.022Z,20.3
2016-04-03T12:55:42.056Z,20.2
2016-04-03T12:56:40.059Z,20.3
2016-04-03T12:57:38.374Z,20.2
2016-04-03T12:58:36.408Z,20.2
2016-04-03T12:59:34.489Z,20.2
2016-04-03T13:00:35.523Z,20.2
2016-04-03T13:01:33.292Z,20.2
2016-04-03T13:02:31.325Z,20.2
2016-04-03T13:03:29.356Z,20.2
2016-04-03T13:04:27.514Z,20.2
2016-04-03T13:05:25.659Z,20.2
2016-04-03T13:06:23.942Z,20.2
2016-04-03T13:07:22.227Z,20.3
2016-04-03T13:08:20.526Z,20.2
2016-04-03T13:09:18.872Z,20.2
2016-04-03T13:10:20.000Z,20.2
2016-04-03T13:11:18.425Z,20.2
2016-04-03T13:12:16.975Z,20.2
2016-04-03T13:13:15.508Z,20.2
2016-04-03T13:14:14.058Z,20.2
2016-04-03T13:15:12.592Z,20.2
2016-04-03T13:16:10.876Z,20.2
2016-04-03T13:17:09.285Z,20.2
2016-04-03T13:18:07.475Z,20.2
2016-04-03T13:19:05.680Z,20.2
2016-04-03T13:20:06.699Z,20.2
2016-04-03T13:21:04.624Z,20.1
2016-04-03T13:22:02.657Z,20.2
2016-04-03T13:23:00.659Z,20.2
2016-04-03T13:23:58.960Z,20.2
2016-04-03T13:24:57.243Z,20.2
2016-04-03T13:25:55.528Z,20.2
2016-04-03T13:26:53.937Z,20.2
2016-04-03T13:27:52.111Z,20.2
2016-04-03T13:28:50.707Z,20.2
2016-04-03T13:29:51.725Z,20.2
2016-04-03T13:30:50.260Z,20.2
2016-04-03T13:31:48.919Z,20.2
2016-04-03T13:32:47.342Z,20.2
2016-04-03T13:33:46.003Z,20.2
2016-04-03T13:34:44.442Z,20.2
2016-04-03T13:35:42.975Z,20.3
2016-04-03T13:36:41.510Z,20.2
2016-04-03T13:37:39.950Z,20.2
2016-04-03T13:38:37.906Z,20.3
2016-04-03T13:39:38.941Z,20.2
2016-04-03T13:40:36.834Z,20.2
2016-04-03T13:41:34.867Z,20.2
2016-04-03T13:42:32.777Z,20.3
2016-04-03T13:43:30.808Z,20.3
2016-04-03T13:44:28.857Z,20.2
2016-04-03T13:45:26.891Z,20.2
2016-04-03T13:46:24.925Z,20.2
2016-04-03T13:47:22.709Z,20.2
2016-04-03T13:48:20.540Z,20.2
2016-04-03T13:49:21.574Z,20.2
2016-04-03T13:50:23.138Z,20.2
2016-04-03T13:51:24.471Z,20.2
2016-04-03T13:52:25.801Z,20.2
2016-04-03T13:53:27.132Z,20.3
2016-04-03T13:54:28.463Z,20.2
2016-04-03T13:55:30.152Z,20.3
2016-04-03T13:56:31.624Z,20.2
2016-04-03T13:57:33.207Z,20.3
2016-04-03T13:58:31.051Z,20.2
2016-04-03T13:59:32.056Z,20.2
2016-04-03T14:00:29.962Z,20.2
2016-04-03T14:01:27.622Z,20.2
2016-04-03T14:02:25.405Z,20.3
2016-04-03T14:03:23.564Z,20.2
2016-04-03T14:04:21.505Z,20.3
2016-04-03T14:05:19.491Z,20.3
2016-04-03T14:06:17.651Z,20.2
2016-04-03T14:07:15.575Z,20.2
2016-04-03T14:08:13.656Z,20.3
2016-04-03T14:09:14.689Z,20.2
2016-04-03T14:10:12.833Z,20.2
2016-04-03T14:11:10.742Z,20.2
2016-04-03T14:12:08.901Z,20.2
2016-04-03T14:13:06.810Z,20.2
2016-04-03T14:14:04.844Z,20.2
2016-04-03T14:15:02.878Z,20.3
2016-04-03T14:16:00.913Z,20.3
2016-04-03T14:16:59.072Z,20.2
2016-04-03T14:17:56.902Z,20.2
2016-04-03T14:18:57.796Z,20.3
2016-04-03T14:19:55.579Z,20.3
2016-04-03T14:20:53.607Z,20.3
2016-04-03T14:21:51.628Z,20.3
2016-04-03T14:22:49.649Z,20.3
2016-04-03T14:23:47.794Z,20.2
2016-04-03T14:24:45.814Z,20.2
2016-04-03T14:25:43.698Z,20.3
2016-04-03T14:26:42.086Z,20.3
2016-04-03T14:27:40.333Z,20.3
2016-04-03T14:28:41.456Z,20.3
2016-04-03T14:29:39.110Z,20.3
2016-04-03T14:30:37.141Z,20.3
2016-04-03T14:31:35.174Z,20.2
2016-04-03T14:32:33.565Z,20.2
2016-04-03T14:33:31.752Z,20.2
2016-04-03T14:34:29.785Z,20.2
2016-04-03T14:35:27.551Z,20.3
2016-04-03T14:36:25.600Z,20.2
2016-04-03T14:37:23.664Z,20.2
2016-04-03T14:38:24.807Z,20.2
2016-04-03T14:39:22.981Z,20.2
2016-04-03T14:40:21.264Z,20.2
2016-04-03T14:41:19.657Z,20.2
2016-04-03T14:42:18.081Z,20.2
2016-04-03T14:43:16.631Z,20.2
2016-04-03T14:44:15.166Z,20.2
2016-04-03T14:45:13.705Z,20.2
2016-04-03T14:46:12.255Z,20.2
2016-04-03T14:47:10.852Z,20.2
2016-04-03T14:48:11.870Z,20.1
2016-04-03T14:49:10.669Z,20.2
2016-04-03T14:50:09.453Z,20.1
2016-04-03T14:51:08.378Z,20.2
2016-04-03T14:52:07.302Z,20.1
2016-04-03T14:53:06.352Z,20.2
2016-04-03T14:54:05.386Z,20.1
2016-04-03T14:55:04.436Z,20.2
2016-04-03T14:56:03.485Z,20.1
2016-04-03T14:57:02.597Z,20.1
2016-04-03T14:58:03.616Z,20.1
2016-04-03T14:59:02.775Z,20.1
2016-04-03T15:00:01.699Z,20.1
2016-04-03T15:01:01.124Z,20.1
2016-04-03T15:02:00.313Z,20.1
2016-04-03T15:02:59.613Z,20.1
2016-04-03T15:03:59.288Z,20.1
2016-04-03T15:04:58.838Z,20.1
2016-04-03T15:05:58.278Z,20.1
2016-04-03T15:06:58.140Z,20.1
2016-04-03T15:07:59.315Z,20.1
2016-04-03T15:08:58.318Z,20.1
2016-04-03T15:09:57.101Z,20.1
2016-04-03T15:10:55.556Z,20.1
2016-04-03T15:11:53.590Z,20.1
2016-04-03T15:12:55.156Z,20.1
2016-04-03T15:13:56.237Z,20.1
2016-04-03T15:14:57.178Z,20.1
2016-04-03T15:15:57.367Z,20.1
2016-04-03T15:16:57.854Z,20.1
2016-04-03T15:17:58.747Z,20.1
2016-04-03T15:18:58.813Z,20.1
2016-04-03T15:19:58.628Z,20.1
2016-04-03T15:20:58.819Z,20.1
2016-04-03T15:21:58.758Z,20.1
2016-04-03T15:22:59.074Z,20.1
2016-04-03T15:23:59.389Z,20.1
2016-04-03T15:24:59.704Z,20.1
2016-04-03T15:25:59.753Z,20.1
2016-04-03T15:26:59.880Z,20.1
2016-04-03T15:28:00.899Z,20.2
2016-04-03T15:29:00.699Z,20.2
2016-04-03T15:30:00.513Z,20.2
2016-04-03T15:31:00.330Z,20.1
2016-04-03T15:32:00.144Z,20.1
2016-04-03T15:32:59.943Z,20.2
2016-04-03T15:33:59.744Z,20.1
2016-04-03T15:34:59.559Z,20.2
2016-04-03T15:35:59.734Z,20.2
2016-04-03T15:36:59.737Z,20.2
2016-04-03T15:38:00.771Z,20.2
2016-04-03T15:39:00.820Z,20.2
2016-04-03T15:40:00.884Z,20.2
2016-04-03T15:41:00.700Z,20.2
2016-04-03T15:42:00.765Z,20.2
2016-04-03T15:43:00.580Z,20.2
2016-04-03T15:43:59.881Z,20.2
2016-04-03T15:44:59.180Z,20.2
2016-04-03T15:45:57.963Z,20.2
2016-04-03T15:46:56.559Z,20.2
2016-04-03T15:47:57.578Z,20.2
2016-04-03T15:48:55.737Z,20.2
2016-04-03T15:49:53.911Z,20.2
2016-04-03T15:50:52.570Z,20.1
2016-04-03T15:51:50.995Z,20.1
2016-04-03T15:52:49.279Z,20.1
2016-04-03T15:53:47.563Z,20.1
2016-04-03T15:54:45.863Z,20.1
2016-04-03T15:55:44.147Z,20.1
2016-04-03T15:56:42.602Z,20.1
2016-04-03T15:57:43.511Z,20.1
2016-04-03T15:58:41.904Z,20.1
2016-04-03T15:59:40.204Z,20.1
2016-04-03T16:00:38.364Z,20.1
2016-04-03T16:01:36.645Z,20.1
2016-04-03T16:02:34.929Z,20.1
2016-04-03T16:03:33.087Z,20.1
2016-04-03T16:04:31.027Z,20.1
2016-04-03T16:05:28.780Z,20.1
2016-04-03T16:06:30.174Z,20
2016-04-03T16:07:31.193Z,20.1
2016-04-03T16:08:32.382Z,20.1
2016-04-03T16:09:33.198Z,20.1
2016-04-03T16:10:33.904Z,20
2016-04-03T16:11:34.468Z,20
2016-04-03T16:12:35.299Z,20
2016-04-03T16:13:36.473Z,20
2016-04-03T16:14:37.948Z,20
2016-04-03T16:15:35.745Z,20
2016-04-03T16:16:34.076Z,20
2016-04-03T16:17:35.219Z,20
2016-04-03T16:18:33.893Z,20
2016-04-03T16:19:32.740Z,20
2016-04-03T16:20:31.477Z,20
2016-04-03T16:21:30.261Z,20
2016-04-03T16:22:28.919Z,20
2016-04-03T16:23:27.079Z,19.9
2016-04-03T16:24:25.113Z,19.9
2016-04-03T16:25:22.896Z,20
2016-04-03T16:26:20.727Z,19.9
2016-04-03T16:27:21.871Z,19.9
2016-04-03T16:28:19.905Z,20
2016-04-03T16:29:18.064Z,19.9
2016-04-03T16:30:16.363Z,20
2016-04-03T16:31:14.647Z,19.9
2016-04-03T16:32:12.931Z,19.9
2016-04-03T16:33:11.480Z,19.9
2016-04-03T16:34:10.265Z,19.9
2016-04-03T16:35:09.330Z,19.9
2016-04-03T16:36:08.535Z,19.9
2016-04-03T16:37:09.444Z,19.9
2016-04-03T16:38:07.979Z,19.9
2016-04-03T16:39:06.262Z,19.9
2016-04-03T16:40:04.296Z,19.9
2016-04-03T16:41:02.330Z,19.9
2016-04-03T16:42:00.364Z,19.9
2016-04-03T16:42:58.398Z,19.9
2016-04-03T16:43:56.432Z,19.9
2016-04-03T16:44:54.716Z,19.9
2016-04-03T16:45:53.062Z,19.9
2016-04-03T16:46:54.081Z,19.9
2016-04-03T16:47:52.755Z,19.9
2016-04-03T16:48:51.165Z,19.9
2016-04-03T16:49:49.964Z,19.8
2016-04-03T16:50:49.014Z,19.8
2016-04-03T16:51:48.313Z,19.8
2016-04-03T16:52:47.612Z,19.8
2016-04-03T16:53:47.161Z,19.8
2016-04-03T16:54:46.961Z,19.8
2016-04-03T16:55:46.824Z,19.8
2016-04-03T16:56:47.842Z,19.8
2016-04-03T16:57:47.908Z,19.8
2016-04-03T16:58:48.222Z,19.7
2016-04-03T16:59:48.788Z,19.7
2016-04-03T17:00:49.353Z,19.7
2016-04-03T17:01:49.919Z,19.7
2016-04-03T17:02:50.233Z,19.7
2016-04-03T17:03:50.564Z,19.7
2016-04-03T17:04:50.988Z,19.7
2016-04-03T17:05:50.991Z,19.7
2016-04-03T17:06:52.025Z,19.7
2016-04-03T17:07:51.590Z,19.7
2016-04-03T17:08:50.874Z,19.7
2016-04-03T17:09:50.174Z,19.7
2016-04-03T17:10:49.474Z,19.7
2016-04-03T17:11:48.774Z,19.7
2016-04-03T17:12:47.823Z,19.7
2016-04-03T17:13:46.888Z,19.7
2016-04-03T17:14:45.921Z,19.7
2016-04-03T17:15:45.143Z,19.7
2016-04-03T17:16:46.051Z,19.7
2016-04-03T17:17:45.351Z,19.7
2016-04-03T17:18:44.651Z,19.7
2016-04-03T17:19:44.217Z,19.7
2016-04-03T17:20:43.812Z,19.7
2016-04-03T17:21:43.315Z,19.7
2016-04-03T17:22:43.114Z,19.7
2016-04-03T17:23:42.930Z,19.7
2016-04-03T17:24:42.995Z,19.7
2016-04-03T17:25:43.107Z,19.7
2016-04-03T17:26:44.235Z,19.7
2016-04-03T17:27:44.456Z,19.7
2016-04-03T17:28:44.756Z,19.6
2016-04-03T17:29:45.196Z,19.7
2016-04-03T17:30:45.386Z,19.7
2016-04-03T17:31:45.702Z,19.7
2016-04-03T17:32:45.751Z,19.6
2016-04-03T17:33:45.832Z,19.7
2016-04-03T17:34:45.632Z,19.7
2016-04-03T17:35:45.618Z,19.7
2016-04-03T17:36:46.512Z,19.7
2016-04-03T17:37:46.577Z,19.7
2016-04-03T17:38:46.893Z,19.7
2016-04-03T17:39:47.208Z,19.6
2016-04-03T17:40:47.523Z,19.7
2016-04-03T17:41:47.838Z,19.6
2016-04-03T17:42:48.153Z,19.6
2016-04-03T17:43:48.468Z,19.6
2016-04-03T17:44:48.768Z,19.6
2016-04-03T17:45:49.270Z,19.6
2016-04-03T17:46:50.289Z,19.6
2016-04-03T17:47:50.479Z,19.6
2016-04-03T17:48:50.795Z,19.6
2016-04-03T17:49:51.235Z,19.6
2016-04-03T17:50:51.800Z,19.6
2016-04-03T17:51:52.256Z,19.6
2016-04-03T17:52:52.821Z,19.6
2016-04-03T17:53:53.386Z,19.6
2016-04-03T17:54:53.951Z,19.6
2016-04-03T17:55:54.969Z,19.6
2016-04-03T17:56:55.863Z,19.6
2016-04-03T17:57:56.802Z,19.5
2016-04-03T17:58:57.758Z,19.6
2016-04-03T18:00:59.905Z,19.5
2016-04-03T18:02:01.361Z,19.6
2016-04-03T18:03:02.566Z,19.6
2016-04-03T18:04:03.897Z,19.5
2016-04-03T18:05:05.227Z,19.6
2016-04-03T18:06:06.355Z,19.6
2016-04-03T18:07:07.374Z,19.5
2016-04-03T18:08:08.455Z,19.6
2016-04-03T18:09:09.535Z,19.5
2016-04-03T18:10:10.601Z,19.5
2016-04-03T18:11:11.682Z,19.5
2016-04-03T18:12:12.763Z,19.6
2016-04-03T18:13:13.827Z,19.5
2016-04-03T18:14:15.159Z,19.5
2016-04-03T18:15:16.489Z,19.5
2016-04-03T18:16:17.882Z,19.5
2016-04-03T18:17:18.901Z,19.5
2016-04-03T18:18:20.232Z,19.5
2016-04-03T18:19:21.188Z,19.5
2016-04-03T18:20:21.862Z,19.5
2016-04-03T18:21:22.428Z,19.5
2016-04-03T18:22:23.039Z,19.5
2016-04-03T18:23:23.323Z,19.5
2016-04-03T18:24:23.623Z,19.4
2016-04-03T18:25:23.689Z,19.4
2016-04-03T18:26:23.567Z,19.4
2016-04-03T18:27:24.584Z,19.5
2016-04-03T18:28:24.915Z,19.5
2016-04-03T18:29:25.214Z,19.4
2016-04-03T18:30:25.780Z,19.4
2016-04-03T18:31:26.351Z,19.5
2016-04-03T18:32:27.165Z,19.4
2016-04-03T18:33:28.106Z,19.4
2016-04-03T18:34:28.828Z,19.4
2016-04-03T18:35:29.423Z,19.4
2016-04-03T18:36:30.270Z,19.4
2016-04-03T18:37:31.397Z,19.4
2016-04-03T18:38:31.916Z,19.4
2016-04-03T18:39:32.419Z,19.4
2016-04-03T18:40:32.984Z,19.4
2016-04-03T18:41:33.564Z,19.4
2016-04-03T18:42:34.381Z,19.4
2016-04-03T18:43:35.211Z,19.4
2016-04-03T18:44:36.027Z,19.4
2016-04-03T18:45:36.841Z,19.4
2016-04-03T18:46:37.720Z,19.4
2016-04-03T18:47:38.752Z,19.3
2016-04-03T18:48:39.569Z,19.3
2016-04-03T18:49:40.524Z,19.3
2016-04-03T18:50:41.214Z,19.3
2016-04-03T18:51:42.030Z,19.3
2016-04-03T18:52:42.344Z,19.3
2016-04-03T18:53:42.410Z,19.3
2016-04-03T18:54:42.474Z,19.3
2016-04-03T18:55:42.649Z,19.3
2016-04-03T18:56:42.652Z,19.2
2016-04-03T18:57:43.670Z,19.3
2016-04-03T18:58:43.845Z,19.2
2016-04-03T18:59:43.785Z,19.2
2016-04-03T19:00:43.851Z,19.2
2016-04-03T19:01:44.040Z,19.2
2016-04-03T19:02:44.231Z,19.2
2016-04-03T19:03:44.609Z,19.2
2016-04-03T19:04:44.862Z,19.2
2016-04-03T19:05:44.926Z,19.2
2016-04-03T19:06:45.226Z,19.2
2016-04-03T19:07:46.091Z,19.1
2016-04-03T19:08:45.640Z,19.1
2016-04-03T19:09:45.047Z,19.1
2016-04-03T19:10:44.097Z,19.1
2016-04-03T19:11:42.505Z,19.2
2016-04-03T19:12:40.289Z,19.3
2016-04-03T19:13:41.635Z,19.4
2016-04-03T19:14:42.311Z,19.6
2016-04-03T19:15:42.267Z,19.7
2016-04-03T19:16:42.127Z,19.9
2016-04-03T19:17:43.147Z,20.1
2016-04-03T19:18:42.305Z,20.3
2016-04-03T19:19:41.121Z,20.5
2016-04-03T19:20:39.560Z,20.6
2016-04-03T19:21:37.955Z,20.8
2016-04-03T19:22:35.879Z,20.9
2016-04-03T19:23:33.772Z,21.1
2016-04-03T19:24:35.227Z,21.3
2016-04-03T19:25:36.558Z,21.4
2016-04-03T19:26:37.936Z,21.6
2016-04-03T19:27:38.955Z,21.7
2016-04-03T19:28:39.895Z,21.8
2016-04-03T19:29:40.601Z,21.9
2016-04-03T19:30:41.165Z,22
2016-04-03T19:31:41.481Z,22.1
2016-04-03T19:32:41.827Z,22.2
2016-04-03T19:33:42.221Z,22.3
2016-04-03T19:34:42.426Z,22.4
2016-04-03T19:35:42.492Z,22.5
2016-04-03T19:36:42.604Z,22.5
2016-04-03T19:37:43.622Z,22.7
2016-04-03T19:38:43.687Z,22.7
2016-04-03T19:39:43.753Z,22.8
2016-04-03T19:40:43.552Z,22.9
2016-04-03T19:41:43.367Z,22.9
2016-04-03T19:42:43.745Z,23
2016-04-03T19:43:42.981Z,23
2016-04-03T19:44:42.516Z,23.1
2016-04-03T19:45:42.066Z,23.1
2016-04-03T19:46:41.678Z,23.1
2016-04-03T19:47:42.711Z,23.2
2016-04-03T19:48:42.105Z,23.2
2016-04-03T19:49:41.279Z,23.2
2016-04-03T19:50:40.579Z,23.3
2016-04-03T19:51:39.988Z,23.3
2016-04-03T19:52:39.178Z,23.3
2016-04-03T19:53:38.462Z,23.3
2016-04-03T19:54:37.777Z,23.3
2016-04-03T19:55:37.186Z,23.3
2016-04-03T19:56:36.438Z,23.3
2016-04-03T19:57:37.426Z,23.3
2016-04-03T19:58:36.741Z,23.2
2016-04-03T19:59:36.165Z,23.2
2016-04-03T20:00:35.356Z,23.2
2016-04-03T20:01:34.749Z,23.1
2016-04-03T20:02:34.032Z,23.1
2016-04-03T20:03:33.224Z,23.1
2016-04-03T20:04:32.523Z,23.1